Time;durP1;ratioP1;P1;durP2;ratioP2;P2;SDS_P1;SDS_P2;PMS_P1;PMS_P2;Temp;Humidity;BMP_temperature;BMP_pressure;BME280_temperature;BME280_humidity;BME280_pressure;Samples;Min_cycle;Max_cycle;Signal;HPM_P1;HPM_P2
2023/04/14 00:00:31;;;;;;;30.15;23.13;;;;;;;8.40;100.00;99622.13;5008039;28;20069;-72
2023/04/14 00:02:57;;;;;;;29.92;20.63;;;;;;;7.76;100.00;99498.66;5009709;28;20096;-74
2023/04/14 00:05:22;;;;;;;31.17;24.15;;;;;;;8.57;100.00;99636.03;5005064;28;20038;-74
2023/04/14 00:07:48;;;;;;;28.50;20.48;;;;;;;8.48;100.00;99629.97;5002970;28;20041;-72
2023/04/14 00:10:13;;;;;;;26.23;20.80;;;;;;;7.68;100.00;99463.91;4998497;28;20096;-74
2023/04/14 00:12:39;;;;;;;26.63;22.48;;;;;;;8.82;100.00;99669.88;5008850;28;20128;-74
2023/04/14 00:15:05;;;;;;;29.05;23.17;;;;;;;8.68;100.00;99661.25;5001202;28;20410;-74
2023/04/14 00:17:30;;;;;;;27.52;21.48;;;;;;;8.48;100.00;99585.53;5007933;28;20044;-74
2023/04/14 00:19:56;;;;;;;25.15;20.83;;;;;;;8.55;100.00;99655.22;5009756;28;20046;-72
2023/04/14 00:22:21;;;;;;;32.03;22.05;;;;;;;8.51;100.00;99651.72;5008160;28;20042;-73
2023/04/14 00:24:49;;;;;;;27.35;20.63;;;;;;;7.93;100.00;99536.91;4999908;28;20077;-74
2023/04/14 00:27:15;;;;;;;27.67;20.40;;;;;;;8.45;100.00;99625.59;5009829;28;20505;-74
2023/04/14 00:29:40;;;;;;;25.20;20.15;;;;;;;7.84;100.00;99550.88;5009359;28;20026;-74
2023/04/14 00:32:06;;;;;;;29.70;20.98;;;;;;;7.88;100.00;99559.56;5010146;28;20097;-74
2023/04/14 00:34:33;;;;;;;27.17;19.52;;;;;;;7.80;100.00;99531.75;4999164;28;20380;-72
2023/04/14 00:36:59;;;;;;;26.25;18.90;;;;;;;8.31;100.00;99640.44;5005550;28;20060;-73
2023/04/14 00:39:24;;;;;;;24.17;19.95;;;;;;;7.78;100.00;99556.13;5003865;28;20058;-74
2023/04/14 00:41:50;;;;;;;24.30;20.00;;;;;;;8.27;100.00;99647.41;5005986;28;20069;-73
2023/04/14 00:44:16;;;;;;;27.85;19.15;;;;;;;8.25;100.00;99639.56;5004730;28;20080;-75
2023/04/14 00:46:42;;;;;;;19.83;15.98;;;;;;;7.69;100.00;99512.63;5007459;28;20484;-73
2023/04/14 00:49:08;;;;;;;26.23;19.42;;;;;;;7.70;100.00;99550.03;5007316;28;20042;-74
2023/04/14 00:51:35;;;;;;;17.95;11.20;;;;;;;8.29;100.00;99635.22;5003261;28;20141;-73
2023/04/14 00:54:08;;;;;;;23.80;19.20;;;;;;;7.64;100.00;99537.00;5007245;28;20680;-73
2023/04/14 00:56:34;;;;;;;20.52;11.75;;;;;;;8.29;100.00;99603.84;5009139;28;20099;-73
2023/04/14 00:59:00;;;;;;;24.08;17.08;;;;;;;8.42;100.00;99629.09;5009378;28;20053;-73
2023/04/14 01:01:30;;;;;;;22.50;16.67;;;;;;;8.34;100.00;99575.09;5006124;28;20045;-74
2023/04/14 01:03:57;;;;;;;23.92;17.75;;;;;;;8.50;100.00;99597.69;5002823;28;20093;-73
2023/04/14 01:06:22;;;;;;;24.65;17.30;;;;;;;8.42;100.00;99575.94;4995907;28;20054;-74
2023/04/14 01:08:49;;;;;;;24.45;18.15;;;;;;;8.21;100.00;99606.47;5005944;28;20088;-74
2023/04/14 01:11:25;;;;;;;28.92;18.38;;;;;;;8.19;100.00;99628.25;5005908;28;20026;-74
2023/04/14 01:14:18;;;;;;;23.92;21.13;;;;;;;8.15;100.00;99623.94;5007821;28;20080;-73
2023/04/14 01:16:48;;;;;;;21.17;12.10;;;;;;;7.88;100.00;99597.00;5006121;28;20053;-73
2023/04/14 01:19:31;;;;;;;27.38;21.25;;;;;;;8.00;100.00;99622.22;4998920;28;20048;-74
2023/04/14 01:22:03;;;;;;;22.90;18.90;;;;;;;7.04;100.00;99471.84;5006097;28;20099;-73
2023/04/14 01:24:36;;;;;;;22.42;19.42;;;;;;;7.85;100.00;99604.84;5008622;28;20077;-73
2023/04/14 01:27:18;;;;;;;27.58;20.65;;;;;;;7.70;100.00;99586.59;5003015;28;20493;-74
2023/04/14 01:30:19;;;;;;;29.02;20.42;;;;;;;7.70;100.00;99578.75;5005094;28;20053;-74
2023/04/14 01:32:48;;;;;;;26.08;20.13;;;;;;;7.07;100.00;99464.03;5006687;28;20041;-73
2023/04/14 01:35:20;;;;;;;26.92;20.83;;;;;;;7.58;100.00;99574.44;4999488;28;20029;-73
2023/04/14 01:37:57;;;;;;;25.52;19.67;;;;;;;7.32;100.00;99532.69;5002324;28;20472;-72
2023/04/14 01:40:25;;;;;;;25.75;20.70;;;;;;;6.91;100.00;99455.38;5008426;28;20133;-72
2023/04/14 01:43:02;;;;;;;18.58;10.85;;;;;;;6.65;100.00;99408.44;5007462;28;20129;-72
2023/04/14 01:45:35;;;;;;;17.77;12.18;;;;;;;7.35;100.00;99545.72;5000752;28;20045;-73
2023/04/14 01:48:02;;;;;;;17.77;11.02;;;;;;;6.66;100.00;99412.78;5005299;28;20084;-74
2023/04/14 01:50:30;;;;;;;19.50;12.45;;;;;;;6.92;100.00;99471.00;5003993;28;20061;-74
2023/04/14 01:52:57;;;;;;;30.10;22.25;;;;;;;7.26;100.00;99543.13;5004810;28;20081;-75
2023/04/14 01:55:27;;;;;;;24.55;18.77;;;;;;;6.52;100.00;99416.25;5007262;28;20038;-74
2023/04/14 01:57:54;;;;;;;23.45;20.98;;;;;;;6.45;100.00;99411.03;5006502;28;20093;-73
2023/04/14 02:00:21;;;;;;;24.75;20.17;;;;;;;6.21;100.00;99381.50;5007594;28;20137;-74
2023/04/14 02:02:50;;;;;;;25.25;19.80;;;;;;;6.44;100.00;99427.53;4998174;28;20053;-74
2023/04/14 02:05:17;;;;;;;24.50;19.48;;;;;;;7.20;100.00;99538.81;4997863;28;20033;-75
2023/04/14 02:07:46;;;;;;;33.08;13.32;;;;;;;6.57;100.00;99402.34;5007316;28;20745;-72
2023/04/14 02:10:15;;;;;;;19.00;11.85;;;;;;;7.09;100.00;99522.28;5005984;28;20046;-74
2023/04/14 02:12:42;;;;;;;23.88;19.45;;;;;;;6.45;100.00;99419.72;4999666;28;20418;-73
2023/04/14 02:15:12;;;;;;;25.75;19.65;;;;;;;6.59;100.00;99452.75;5007657;28;20499;-75
2023/04/14 02:17:40;;;;;;;23.98;20.48;;;;;;;7.18;100.00;99553.59;5006958;28;20041;-74
2023/04/14 02:20:11;;;;;;;18.13;11.50;;;;;;;7.11;100.00;99544.03;5004805;28;20060;-74
2023/04/14 02:22:37;;;;;;;27.45;22.08;;;;;;;7.21;100.00;99561.44;5003643;28;20041;-74
2023/04/14 02:25:03;;;;;;;24.98;18.27;;;;;;;6.62;100.00;99419.72;5007102;28;20053;-74
2023/04/14 02:27:38;;;;;;;25.55;19.77;;;;;;;6.90;100.00;99514.44;5007201;28;20050;-73
2023/04/14 02:30:15;;;;;;;22.95;20.23;;;;;;;6.26;100.00;99398.00;5002547;28;20072;-73
2023/04/14 02:32:45;;;;;;;26.98;20.02;;;;;;;7.23;100.00;99546.63;5007238;28;20036;-73
2023/04/14 02:35:20;;;;;;;24.92;13.57;;;;;;;7.17;100.00;99537.06;5007733;28;20079;-74
2023/04/14 02:37:50;;;;;;;27.52;20.65;;;;;;;6.26;100.00;99381.50;5005064;28;20046;-75
2023/04/14 02:40:38;;;;;;;30.45;22.30;;;;;;;7.22;100.00;99542.28;5003824;28;20045;-74
2023/04/14 02:43:11;;;;;;;26.27;19.02;;;;;;;6.32;100.00;99395.41;5005476;28;20045;-73
2023/04/14 02:45:39;;;;;;;16.20;11.05;;;;;;;6.89;100.00;99510.13;5000457;28;20048;-74
2023/04/14 02:48:10;;;;;;;18.88;12.45;;;;;;;6.26;100.00;99395.41;4995784;28;20046;-74
2023/04/14 02:50:36;;;;;;;19.70;10.75;;;;;;;6.78;100.00;99470.13;5005142;28;20088;-74
2023/04/14 02:53:03;;;;;;;25.40;19.90;;;;;;;6.96;100.00;99519.69;5005754;28;20042;-73
2023/04/14 02:55:29;;;;;;;30.50;23.75;;;;;;;6.46;100.00;99426.69;5006317;28;20125;-74
2023/04/14 02:57:57;;;;;;;28.92;22.02;;;;;;;6.03;100.00;99381.47;4999574;28;20055;-73
2023/04/14 03:00:23;;;;;;;28.92;23.10;;;;;;;5.55;100.00;99290.28;5004315;28;20046;-73
2023/04/14 03:02:51;;;;;;;29.75;22.38;;;;;;;6.31;100.00;99418.84;5004026;28;20056;-73
2023/04/14 03:05:17;;;;;;;29.13;19.77;;;;;;;6.80;100.00;99480.56;4982635;28;20042;-73
2023/04/14 03:07:43;;;;;;;30.88;22.02;;;;;;;6.13;100.00;99398.84;4999131;28;20049;-75
2023/04/14 03:10:10;;;;;;;31.67;19.98;;;;;;;6.01;100.00;99378.88;5003601;28;20080;-72
2023/04/14 03:12:36;;;;;;;21.30;13.52;;;;;;;6.30;100.00;99443.19;5000888;28;20738;-72
2023/04/14 03:15:02;;;;;;;17.70;13.15;;;;;;;6.60;100.00;99512.69;5007891;28;20509;-73
2023/04/14 03:17:29;;;;;;;24.95;20.75;;;;;;;6.42;100.00;99478.81;5005100;28;20100;-74
2023/04/14 03:19:55;;;;;;;30.13;23.25;;;;;;;6.72;100.00;99530.09;5006155;28;20045;-74
2023/04/14 03:22:22;;;;;;;22.42;13.60;;;;;;;6.72;100.00;99524.88;5006413;28;20054;-73
2023/04/14 03:24:49;;;;;;;17.75;12.10;;;;;;;6.08;100.00;99419.66;4996162;28;20042;-75
2023/04/14 03:27:21;;;;;;;27.73;22.38;;;;;;;6.65;100.00;99539.66;5001174;28;20042;-73
2023/04/14 03:29:50;;;;;;;36.65;23.10;;;;;;;6.42;100.00;99486.63;5005696;28;20060;-75
2023/04/14 03:32:18;;;;;;;18.38;14.10;;;;;;;6.31;100.00;99471.81;5001830;28;20042;-76
2023/04/14 03:34:49;;;;;;;20.05;13.73;;;;;;;6.14;100.00;99411.03;4999193;28;20514;-73
2023/04/14 03:37:21;;;;;;;27.10;14.20;;;;;;;5.22;100.00;99265.91;5018177;28;20795;-72
2023/04/14 03:39:50;;;;;;;20.38;14.13;;;;;;;6.52;100.00;99484.00;5004249;28;20045;-72
2023/04/14 03:42:18;;;;;;;22.42;15.10;;;;;;;6.53;100.00;99496.19;5004085;28;20060;-76
2023/04/14 03:44:48;;;;;;;18.63;14.10;;;;;;;5.90;100.00;99388.38;5006663;28;20038;-73
2023/04/14 03:47:14;;;;;;;30.73;22.92;;;;;;;6.01;100.00;99402.28;4999375;28;20092;-74
2023/04/14 03:49:42;;;;;;;24.42;21.45;;;;;;;6.18;100.00;99430.09;4997374;28;20562;-74
2023/04/14 03:52:11;;;;;;;27.88;20.85;;;;;;;6.65;100.00;99486.63;4999492;28;20105;-74
2023/04/14 03:54:39;;;;;;;19.05;13.45;;;;;;;6.79;100.00;99504.88;5005861;28;20096;-74
2023/04/14 03:57:08;;;;;;;18.60;12.68;;;;;;;5.95;100.00;99375.38;5003459;28;20459;-74
2023/04/14 03:59:35;;;;;;;21.83;14.15;;;;;;;6.91;100.00;99504.91;4996605;28;20042;-75
2023/04/14 04:02:01;;;;;;;29.13;22.20;;;;;;;6.73;100.00;99488.38;5003893;28;20046;-73
2023/04/14 04:04:29;;;;;;;27.88;21.40;;;;;;;6.99;100.00;99524.03;5006306;28;20054;-73
2023/04/14 04:06:57;;;;;;;30.67;21.75;;;;;;;6.19;100.00;99375.44;4996565;28;20056;-75
2023/04/14 04:09:24;;;;;;;28.85;21.75;;;;;;;6.78;100.00;99491.00;5006373;28;20054;-73
2023/04/14 04:11:51;;;;;;;30.15;21.65;;;;;;;7.13;100.00;99506.63;5001728;28;20129;-73
2023/04/14 04:14:20;;;;;;;16.73;11.60;;;;;;;7.10;100.00;99519.69;5010175;28;20041;-73
2023/04/14 04:16:48;;;;;;;26.65;20.42;;;;;;;7.08;100.00;99515.34;5000880;28;20144;-75
2023/04/14 04:19:16;;;;;;;22.10;12.85;;;;;;;6.83;100.00;99470.13;5001326;28;20049;-74
2023/04/14 04:21:44;;;;;;;26.60;22.33;;;;;;;7.42;100.00;99549.22;5009638;28;20102;-73
2023/04/14 04:24:12;;;;;;;32.00;22.40;;;;;;;7.47;100.00;99537.91;5005678;28;20406;-75
2023/04/14 04:26:37;;;;;;;29.52;22.95;;;;;;;7.44;100.00;99539.66;5007071;28;20428;-73
2023/04/14 04:29:04;;;;;;;34.50;25.10;;;;;;;6.80;100.00;99407.56;5007580;28;20030;-74
2023/04/14 04:31:31;;;;;;;34.92;22.35;;;;;;;6.76;100.00;99417.97;5003711;28;20414;-75
2023/04/14 04:33:57;;;;;;;27.95;22.00;;;;;;;7.51;100.00;99552.69;5003754;28;20054;-73
2023/04/14 04:36:26;;;;;;;28.67;21.10;;;;;;;7.74;100.00;99570.91;5000420;28;20049;-73
2023/04/14 04:38:52;;;;;;;24.20;20.42;;;;;;;7.67;100.00;99534.38;5002209;28;20030;-75
2023/04/14 04:41:25;;;;;;;22.35;14.57;;;;;;;7.81;100.00;99553.50;5006450;28;20348;-73
2023/04/14 04:43:51;;;;;;;33.65;23.83;;;;;;;7.26;100.00;99444.88;5001951;28;20049;-75
2023/04/14 04:46:40;;;;;;;29.23;21.90;;;;;;;8.13;100.00;99560.38;5003209;28;20038;-74
2023/04/14 04:49:05;;;;;;;37.22;21.52;;;;;;;8.16;100.00;99576.03;5007498;28;20041;-76
2023/04/14 04:51:31;;;;;;;17.58;12.50;;;;;;;8.34;100.00;99564.63;5007491;28;20045;-76
2023/04/14 04:53:56;;;;;;;16.33;10.95;;;;;;;7.68;100.00;99463.00;5003729;28;20034;-73
2023/04/14 04:56:21;;;;;;;29.98;19.73;;;;;;;8.45;100.00;99565.47;5007897;28;20029;-74
2023/04/14 04:58:47;;;;;;;20.95;16.15;;;;;;;8.60;100.00;99590.69;5006793;28;20152;-74
2023/04/14 05:01:18;;;;;;;21.98;16.40;;;;;;;8.63;100.00;99577.56;5006934;28;20065;-73
2023/04/14 05:03:44;;;;;;;21.73;16.25;;;;;;;8.68;100.00;99574.94;5006553;28;20061;-72
2023/04/14 05:06:10;;;;;;;18.88;13.45;;;;;;;8.36;100.00;99561.13;5000418;28;20069;-73
2023/04/14 05:08:35;;;;;;;17.85;15.13;;;;;;;8.82;100.00;99623.66;5002310;28;20061;-72
2023/04/14 05:11:01;;;;;;;20.02;14.32;;;;;;;7.99;100.00;99487.28;5006140;28;20037;-75
2023/04/14 05:13:26;;;;;;;20.42;13.73;;;;;;;8.24;100.00;99477.53;5003577;28;20141;-74
2023/04/14 05:16:02;;;;;;;18.25;14.15;;;;;;;9.19;100.00;99636.53;4998503;28;20045;-75
2023/04/14 05:18:27;;;;;;;25.83;13.88;;;;;;;8.63;100.00;99494.75;5007586;28;20042;-74
2023/04/14 05:20:53;;;;;;;17.10;12.38;;;;;;;9.99;100.00;99557.22;5003673;28;20038;-73
2023/04/14 05:23:18;;;;;;;17.17;13.25;;;;;;;10.69;100.00;99621.06;5007358;28;20080;-75
2023/04/14 05:25:44;;;;;;;15.18;12.32;;;;;;;11.23;100.00;99691.19;5004092;28;20050;-74
2023/04/14 05:28:10;;;;;;;16.63;12.63;;;;;;;11.36;100.00;99699.78;5005342;28;20137;-74
2023/04/14 05:30:35;;;;;;;21.95;11.75;;;;;;;11.99;100.00;99710.19;5000302;28;20056;-74
2023/04/14 05:33:01;;;;;;;17.70;12.15;;;;;;;11.86;100.00;99723.53;5000225;28;20054;-74
2023/04/14 05:35:26;;;;;;;16.05;9.98;;;;;;;11.68;100.00;99715.03;5000749;28;20061;-74
2023/04/14 05:37:52;;;;;;;15.05;11.15;;;;;;;11.27;100.00;99631.63;4995988;28;20046;-73
2023/04/14 05:40:19;;;;;;;15.13;11.77;;;;;;;12.66;100.00;99712.44;5030660;28;20057;-75
2023/04/14 05:42:44;;;;;;;15.07;11.40;;;;;;;12.06;100.00;99692.53;5006519;28;20552;-74
2023/04/14 05:45:10;;;;;;;16.35;10.45;;;;;;;10.97;100.00;99576.91;5002888;28;20049;-75
2023/04/14 05:47:36;;;;;;;12.40;11.05;;;;;;;12.83;100.00;99686.66;4998963;28;20030;-73
2023/04/14 05:50:02;;;;;;;17.38;10.90;;;;;;;14.12;100.00;99717.97;5005379;28;20037;-74
2023/04/14 05:52:28;;;;;;;15.63;11.45;;;;;;;13.94;100.00;99560.16;5007594;28;20050;-74
2023/04/14 05:54:54;;;;;;;16.25;10.70;;;;;;;13.78;100.00;99498.22;5006596;28;20473;-75
2023/04/14 05:57:20;;;;;;;12.85;9.02;;;;;;;14.96;100.00;99717.44;4999602;28;20477;-75
2023/04/14 05:59:45;;;;;;;15.55;11.20;;;;;;;15.69;100.00;99739.91;4999086;28;20045;-79
2023/04/14 06:02:11;;;;;;;14.88;9.98;;;;;;;14.94;100.00;99605.66;4995730;28;20342;-76
2023/04/14 06:04:36;;;;;;;13.98;10.48;;;;;;;15.80;100.00;99716.66;4997962;28;20054;-77
2023/04/14 06:07:02;;;;;;;13.30;9.85;;;;;;;13.36;100.00;99727.69;5008309;28;20045;-78
2023/04/14 06:09:27;;;;;;;16.13;9.52;;;;;;;13.53;100.00;99617.47;4998628;28;20053;-71
2023/04/14 06:11:53;;;;;;;14.90;9.43;;;;;;;15.47;100.00;99718.53;5001733;28;20386;-70
2023/04/14 06:14:18;;;;;;;16.05;8.88;;;;;;;14.92;100.00;99725.50;4998940;28;20065;-70
2023/04/14 06:16:45;;;;;;;12.80;9.57;;;;;;;13.20;100.00;99663.91;4993417;28;20111;-73
2023/04/14 06:19:10;;;;;;;11.57;9.05;;;;;;;14.01;100.00;99690.97;4999796;28;20050;-74
2023/04/14 06:21:35;;;;;;;14.38;8.57;;;;;;;13.33;100.00;99599.53;5000597;28;20108;-74
2023/04/14 06:24:01;;;;;;;10.98;8.57;;;;;;;14.85;100.00;99690.47;4997471;28;20049;-73
2023/04/14 06:26:26;;;;;;;10.02;7.57;;;;;;;15.09;100.00;99717.09;4998307;28;20049;-73
2023/04/14 06:28:52;;;;;;;15.07;7.20;;;;;;;13.17;100.00;99588.47;5000258;28;20049;-73
2023/04/14 06:31:18;;;;;;;13.52;8.05;;;;;;;13.71;100.00;99592.41;5005654;28;20038;-74
2023/04/14 06:33:43;;;;;;;11.80;8.10;;;;;;;13.21;100.00;99705.19;5003610;28;20085;-73
2023/04/14 06:36:09;;;;;;;15.82;6.43;;;;;;;12.90;100.00;99650.53;5004200;28;20054;-72
2023/04/14 06:38:34;;;;;;;10.23;7.85;;;;;;;13.29;100.00;99593.47;5003965;28;20037;-73
2023/04/14 06:41:00;;;;;;;9.90;7.63;;;;;;;13.60;100.00;99655.97;5002056;28;20092;-73
2023/04/14 06:43:27;;;;;;;13.38;7.95;;;;;;;13.33;100.00;99699.66;4996944;28;20065;-73
2023/04/14 06:45:53;;;;;;;12.35;8.10;;;;;;;13.81;100.00;99703.78;5001182;28;20057;-72
2023/04/14 06:48:19;;;;;;;12.32;7.45;;;;;;;13.69;100.00;99675.97;5001555;28;20072;-73
2023/04/14 06:50:52;;;;;;;15.70;9.75;;;;;;;13.63;100.00;99694.59;5003394;28;20033;-73
2023/04/14 06:53:17;;;;;;;12.75;7.05;;;;;;;13.69;100.00;99682.09;5002483;28;20030;-75
2023/04/14 06:55:43;;;;;;;13.23;7.88;;;;;;;13.14;100.00;99591.19;5001930;28;20041;-73
2023/04/14 06:58:08;;;;;;;20.95;11.27;;;;;;;12.94;100.00;99696.09;4998734;28;20065;-74
2023/04/14 07:00:33;;;;;;;16.17;8.27;;;;;;;13.22;100.00;99704.25;4998730;28;20050;-75
2023/04/14 07:02:59;;;;;;;33.95;9.40;;;;;;;13.08;100.00;99701.94;4997495;28;20050;-75
2023/04/14 07:05:25;;;;;;;14.20;8.23;;;;;;;12.56;100.00;99598.59;4996141;28;20046;-72
2023/04/14 07:07:50;;;;;;;11.15;8.50;;;;;;;13.47;100.00;99700.19;4996360;28;20053;-75
2023/04/14 07:10:16;;;;;;;13.00;9.20;;;;;;;13.68;100.00;99697.97;4998175;28;20064;-76
2023/04/14 07:12:41;;;;;;;18.13;8.60;;;;;;;12.91;100.00;99580.31;4994231;28;20133;-74
2023/04/14 07:15:07;;;;;;;13.48;7.25;;;;;;;13.68;100.00;99671.59;4999417;28;20053;-72
2023/04/14 07:17:35;;;;;;;13.57;8.15;;;;;;;13.59;100.00;99677.97;4994227;28;20033;-70
2023/04/14 07:20:02;;;;;;;11.55;7.70;;;;;;;13.76;100.00;99684.59;5001184;28;20081;-70
2023/04/14 07:22:28;;;;;;;12.13;7.18;;;;;;;14.14;100.00;99709.97;4995157;28;20144;-70
2023/04/14 07:24:53;;;;;;;13.88;8.25;;;;;;;14.31;100.00;99710.41;5003726;28;20218;-71
2023/04/14 07:27:19;;;;;;;9.48;6.85;;;;;;;13.61;100.00;99615.53;4996951;28;20053;-68
2023/04/14 07:29:44;;;;;;;10.52;7.72;;;;;;;13.78;100.00;99712.66;4999771;28;20034;-69
2023/04/14 07:32:12;;;;;;;12.15;7.38;;;;;;;13.16;100.00;99584.09;5033018;28;20037;-70
2023/04/14 07:34:40;;;;;;;11.48;8.18;;;;;;;13.07;100.00;99585.19;5000655;28;20054;-72
2023/04/14 07:37:05;;;;;;;9.85;6.68;;;;;;;13.23;100.00;99577.78;5002473;28;20053;-72
2023/04/14 07:39:31;;;;;;;10.77;6.45;;;;;;;13.97;100.00;99664.72;5006876;28;20049;-73
2023/04/14 07:41:57;;;;;;;14.10;7.35;;;;;;;14.61;100.00;99709.66;5022548;28;20467;-71
2023/04/14 07:44:23;;;;;;;12.38;7.13;;;;;;;14.62;100.00;99688.50;5005838;28;20088;-71
2023/04/14 07:46:48;;;;;;;11.15;6.13;;;;;;;14.96;100.00;99704.25;5001091;28;20046;-71
2023/04/14 07:49:14;;;;;;;8.30;6.15;;;;;;;14.66;100.00;99674.28;5007566;28;20050;-70
2023/04/14 07:51:39;;;;;;;8.90;5.72;;;;;;;14.52;100.00;99606.00;5006839;28;20505;-71
2023/04/14 07:54:05;;;;;;;10.38;6.70;;;;;;;14.60;100.00;99613.72;5004279;28;20434;-72
2023/04/14 07:56:30;;;;;;;10.45;6.53;;;;;;;14.97;100.00;99678.69;5006997;28;20105;-71
2023/04/14 07:58:56;;;;;;;10.00;6.15;;;;;;;14.32;100.00;99603.06;4996428;28;20049;-72
2023/04/14 08:01:21;;;;;;;10.73;7.20;;;;;;;13.60;100.00;99520.66;5001244;28;20510;-71
2023/04/14 08:03:47;;;;;;;10.20;6.60;;;;;;;13.22;100.00;99490.88;4995298;28;20054;-71
2023/04/14 08:06:12;;;;;;;10.52;6.57;;;;;;;14.77;100.00;99666.94;4994446;28;20145;-71
2023/04/14 08:08:38;;;;;;;13.40;6.18;;;;;;;14.10;100.00;99510.50;4996495;28;20042;-73
2023/04/14 08:11:04;;;;;;;7.97;6.22;;;;;;;14.72;100.00;99563.19;4996217;28;20049;-70
2023/04/14 08:13:30;;;;;;;13.43;6.15;;;;;;;15.75;100.00;99676.25;5003870;28;20046;-74
2023/04/14 08:15:55;;;;;;;10.57;6.43;;;;;;;15.31;100.00;99566.63;5002725;28;20046;-75
2023/04/14 08:18:21;;;;;;;8.70;6.22;;;;;;;14.73;100.00;99561.44;5007076;28;20125;-74
2023/04/14 08:20:46;;;;;;;10.35;6.57;;;;;;;14.39;100.00;99488.50;5006565;28;20053;-74
2023/04/14 08:23:13;;;;;;;9.35;5.30;;;;;;;15.49;100.00;99647.13;5007262;28;20447;-74
2023/04/14 08:25:38;;;;;;;10.70;5.88;;;;;;;15.92;100.00;99667.75;4997020;28;20085;-73
2023/04/14 08:28:04;;;;;;;8.73;6.20;;;;;;;15.30;100.00;99481.19;5008886;28;20379;-72
2023/04/14 08:30:30;;;;;;;13.30;5.63;;;;;;;15.85;100.00;99637.13;5008067;28;20738;-73
2023/04/14 08:32:55;;;;;;;8.05;5.68;;;;;;;15.89;100.00;99632.59;5002710;28;20220;-73
2023/04/14 08:35:24;;;;;;;12.00;6.45;;;;;;;15.61;100.00;99618.47;4991615;28;20049;-73
2023/04/14 08:37:49;;;;;;;18.55;6.38;;;;;;;15.78;100.00;99599.44;5004038;28;20072;-72
2023/04/14 08:40:18;;;;;;;8.35;5.32;;;;;;;15.83;100.00;99625.75;4999144;28;20189;-72
2023/04/14 08:42:44;;;;;;;7.47;5.65;;;;;;;15.14;100.00;99536.31;5005774;28;20109;-75
2023/04/14 08:45:11;;;;;;;9.35;6.10;;;;;;;15.03;100.00;99540.22;5005697;28;20060;-75
2023/04/14 08:47:39;;;;;;;9.50;7.10;;;;;;;14.99;100.00;99569.41;4999442;28;20045;-73
2023/04/14 08:50:10;;;;;;;9.43;6.38;;;;;;;14.79;100.00;99524.25;4993481;28;20046;-72
2023/04/14 08:52:38;;;;;;;9.85;6.57;;;;;;;15.66;100.00;99625.41;4990041;28;20529;-72
2023/04/14 08:55:06;;;;;;;13.82;6.88;;;;;;;15.44;100.00;99589.09;5001722;28;20072;-72
2023/04/14 08:57:32;;;;;;;9.98;6.25;;;;;;;15.66;100.00;99589.22;5001000;28;20050;-72
2023/04/14 08:59:59;;;;;;;9.27;6.10;;;;;;;15.58;100.00;99501.38;5006485;28;20038;-72
2023/04/14 09:02:26;;;;;;;11.98;7.00;;;;;;;16.30;100.00;99601.16;5003218;28;20050;-73
2023/04/14 09:04:51;;;;;;;22.50;6.20;;;;;;;16.00;100.00;99514.00;5004964;28;20041;-73
2023/04/14 09:07:20;;;;;;;8.77;6.45;;;;;;;15.83;100.00;99522.56;5010799;28;20549;-73
2023/04/14 09:09:46;;;;;;;13.77;6.30;;;;;;;15.64;100.00;99503.81;5026230;28;20152;-74
2023/04/14 09:12:16;;;;;;;11.13;6.65;;;;;;;16.19;100.00;99588.31;5006533;28;20052;-73
2023/04/14 09:14:43;;;;;;;17.70;6.88;;;;;;;15.90;100.00;99491.47;5008177;28;20124;-73
2023/04/14 09:17:09;;;;;;;7.78;5.15;;;;;;;16.22;100.00;99511.41;4994047;28;20046;-73
2023/04/14 09:19:35;;;;;;;9.25;6.35;;;;;;;16.43;100.00;99594.47;4988534;28;20386;-73
2023/04/14 09:22:00;;;;;;;8.50;6.75;;;;;;;16.39;100.00;99596.38;4997154;28;20042;-73
2023/04/14 09:24:32;;;;;;;10.30;6.72;;;;;;;15.68;100.00;99491.31;5008541;28;20065;-73
2023/04/14 09:27:02;;;;;;;11.23;5.78;;;;;;;16.66;100.00;99612.16;5008345;28;20029;-73
2023/04/14 09:29:28;;;;;;;9.63;5.97;;;;;;;16.77;100.00;99598.50;5008790;28;20446;-73
2023/04/14 09:31:53;;;;;;;9.95;6.00;;;;;;;16.75;100.00;99598.56;5008195;28;20037;-73
2023/04/14 09:34:20;;;;;;;11.52;5.95;;;;;;;16.68;100.00;99607.66;5008376;28;20431;-73
2023/04/14 09:37:06;;;;;;;10.20;5.82;;;;;;;16.74;100.00;99520.00;5007883;28;20048;-73
2023/04/14 09:39:45;;;;;;;7.25;5.20;;;;;;;16.90;100.00;99514.97;5008197;28;20042;-73
2023/04/14 09:42:10;;;;;;;8.90;5.88;;;;;;;16.42;100.00;99493.00;5006463;28;20045;-73
2023/04/14 09:44:55;;;;;;;21.23;5.28;;;;;;;16.33;100.00;99402.47;5008661;28;20065;-73
2023/04/14 09:47:21;;;;;;;16.55;5.57;;;;;;;17.54;100.00;99590.16;5005357;28;20166;-73
2023/04/14 09:49:59;;;;;;;12.52;4.82;;;;;;;17.56;100.00;99569.72;5008081;28;20046;-73
2023/04/14 09:52:43;;;;;;;7.50;5.13;;;;;;;17.77;100.00;99549.34;5007686;28;20115;-73
2023/04/14 09:55:11;;;;;;;9.13;5.07;;;;;;;17.56;100.00;99480.41;5000043;28;20052;-73
2023/04/14 09:57:41;;;;;;;9.45;4.68;;;;;;;18.55;100.00;99565.34;5004806;28;20057;-73
2023/04/14 10:00:26;;;;;;;7.68;4.72;;;;;;;18.69;100.00;99548.75;5004558;28;20056;-74
2023/04/14 10:02:54;;;;;;;10.13;4.82;;;;;;;17.95;100.00;99458.34;5003720;28;20045;-73
2023/04/14 10:05:30;;;;;;;6.43;4.78;;;;;;;17.61;100.00;99437.75;5010485;28;20036;-73
2023/04/14 10:08:02;;;;;;;9.98;5.00;;;;;;;17.83;100.00;99499.56;4995852;28;20100;-72
2023/04/14 10:10:28;;;;;;;11.60;4.65;;;;;;;17.80;100.00;99525.38;5006040;28;20067;-72
2023/04/14 10:12:54;;;;;;;7.95;4.57;;;;;;;18.21;100.00;99530.63;4997461;28;20050;-73
2023/04/14 10:15:20;;;;;;;6.85;3.72;;;;;;;17.81;100.00;99505.88;5007513;28;20060;-73
2023/04/14 10:17:46;;;;;;;7.85;4.25;;;;;;;18.25;100.00;99514.47;4988839;28;20031;-72
2023/04/14 10:20:11;;;;;;;10.35;4.55;;;;;;;17.65;100.00;99418.97;4988434;28;20049;-72
2023/04/14 10:22:37;;;;;;;6.88;4.18;;;;;;;18.12;100.00;99506.22;5003153;28;20391;-73
2023/04/14 10:25:04;;;;;;;10.27;3.83;;;;;;;18.46;100.00;99490.53;5006363;28;20038;-74
2023/04/14 10:27:31;;;;;;;5.97;3.60;;;;;;;18.09;100.00;99389.53;5004960;28;20049;-73
2023/04/14 10:29:58;;;;;;;10.85;4.72;;;;;;;18.02;98.23;99360.69;5005953;28;20042;-73
2023/04/14 10:32:28;;;;;;;6.18;3.03;;;;;;;18.81;98.30;99490.66;5007189;28;20092;-73
2023/04/14 10:35:04;;;;;;;9.02;5.18;;;;;;;18.79;100.00;99481.91;5007308;28;20049;-73
2023/04/14 10:37:30;;;;;;;6.57;3.53;;;;;;;18.76;95.06;99466.94;5007260;28;20516;-73
2023/04/14 10:39:58;;;;;;;5.57;3.22;;;;;;;18.41;89.18;99413.69;5007318;28;20446;-74
2023/04/14 10:42:24;;;;;;;5.22;3.13;;;;;;;18.91;89.77;99466.19;5007227;28;20049;-73
2023/04/14 10:45:07;;;;;;;7.22;3.15;;;;;;;18.91;89.45;99454.69;5004693;28;20147;-73
2023/04/14 10:47:34;;;;;;;8.32;2.88;;;;;;;19.04;88.14;99478.91;4994967;28;20041;-74
2023/04/14 10:50:14;;;;;;;9.82;3.63;;;;;;;19.01;86.29;99506.50;5007011;28;20041;-73
2023/04/14 10:52:49;;;;;;;8.38;2.90;;;;;;;18.87;84.84;99427.44;5006986;28;20092;-74
2023/04/14 10:55:15;;;;;;;11.55;3.20;;;;;;;18.86;85.28;99407.06;5005523;28;20133;-73
2023/04/14 10:57:43;;;;;;;5.45;3.45;;;;;;;19.60;83.50;99509.72;5007030;28;20152;-73
2023/04/14 11:00:30;;;;;;;9.95;3.40;;;;;;;19.66;85.44;99524.50;5006894;28;20044;-74
2023/04/14 11:03:02;;;;;;;9.95;3.05;;;;;;;19.61;80.45;99532.72;5006662;28;20248;-73
2023/04/14 11:05:27;;;;;;;5.13;3.35;;;;;;;19.58;78.84;99524.91;5012972;28;20037;-73
2023/04/14 11:07:55;;;;;;;8.30;3.00;;;;;;;19.03;77.57;99462.06;5026341;28;20050;-72
2023/04/14 11:10:21;;;;;;;6.63;4.03;;;;;;;19.64;82.93;99537.88;5009260;28;20140;-73
2023/04/14 11:12:48;;;;;;;22.67;3.63;;;;;;;20.31;81.54;99529.97;5005861;28;20137;-72
2023/04/14 11:15:15;;;;;;;6.38;3.65;;;;;;;19.96;73.75;99477.66;5004851;28;20604;-73
2023/04/14 11:17:44;;;;;;;5.82;3.33;;;;;;;20.56;71.86;99530.38;5002369;28;20105;-73
2023/04/14 11:20:22;;;;;;;11.18;3.42;;;;;;;20.84;68.86;99523.50;5011196;28;20064;-74
2023/04/14 11:22:50;;;;;;;5.82;3.03;;;;;;;21.36;75.41;99516.97;5010716;28;20137;-73